Time,TemperatureF,DewpointF,PressureIn,WindDirection,WindDirectionDegrees,WindSpeedMPH,WindSpeedGustMPH,Humidity,HourlyPrecipIn,Conditions,Clouds,dailyrainin,SoftwareType,DateUTC
2013-08-17 00:02:00,60.0,57.0,30.21,ENE,62,0.0,0.0,90,0.00,,,0.00,,2013-08-17 04:02:00,
2013-08-17 00:23:00,60.0,57.0,30.21,ENE,62,0.0,0.0,90,0.00,,,0.00,,2013-08-17 04:23:00,
2013-08-17 00:32:00,60.0,57.0,30.21,ENE,62,0.0,0.0,90,0.00,,,0.00,,2013-08-17 04:32:00,
2013-08-17 00:53:00,60.0,57.0,30.21,ENE,62,0.0,0.0,90,0.00,,,0.00,,2013-08-17 04:53:00,
2013-08-17 01:23:00,59.0,57.0,30.22,ENE,62,0.0,0.0,93,0.00,,,0.00,,2013-08-17 05:23:00,
2013-08-17 01:32:00,59.0,57.0,30.22,ENE,62,0.0,0.0,93,0.00,,,0.00,,2013-08-17 05:32:00,
2013-08-17 01:52:00,59.0,57.0,30.22,ENE,62,0.0,0.0,93,0.00,,,0.00,,2013-08-17 05:52:00,
2013-08-17 02:01:00,59.0,57.0,30.22,ENE,62,0.0,0.0,93,0.00,,,0.00,,2013-08-17 06:01:00,
2013-08-17 02:21:00,59.0,57.0,30.23,ENE,62,0.0,0.0,93,0.00,,,0.00,,2013-08-17 06:21:00,
2013-08-17 02:32:00,59.0,57.0,30.23,ENE,62,0.0,0.0,93,0.00,,,0.00,,2013-08-17 06:32:00,
2013-08-17 02:52:00,59.0,57.0,30.23,ENE,62,0.0,0.0,93,0.00,,,0.00,,2013-08-17 06:52:00,
2013-08-17 03:01:00,59.0,57.0,30.23,ENE,62,0.0,0.0,93,0.00,,,0.00,,2013-08-17 07:01:00,
2013-08-17 03:22:00,59.0,56.0,30.22,ENE,61,0.0,0.0,91,0.00,,,0.00,,2013-08-17 07:22:00,
2013-08-17 03:32:00,59.0,56.0,30.22,ENE,61,0.0,0.0,91,0.00,,,0.00,,2013-08-17 07:32:00,
2013-08-17 03:52:00,59.0,56.0,30.22,ENE,61,0.0,0.0,91,0.00,,,0.00,,2013-08-17 07:52:00,
2013-08-17 04:01:00,59.0,56.0,30.22,ENE,61,0.0,0.0,91,0.00,,,0.00,,2013-08-17 08:01:00,
2013-08-17 04:02:00,59.0,56.0,30.23,ENE,62,0.0,0.0,89,0.00,,,0.00,,2013-08-17 08:02:00,
2013-08-17 04:21:00,59.0,56.0,30.23,ENE,62,0.0,0.0,89,0.00,,,0.00,,2013-08-17 08:21:00,
2013-08-17 04:33:00,59.0,56.0,30.23,ENE,62,0.0,0.0,89,0.00,,,0.00,,2013-08-17 08:33:00,
2013-08-17 04:52:00,59.0,56.0,30.23,ENE,62,0.0,0.0,89,0.00,,,0.00,,2013-08-17 08:52:00,
2013-08-17 05:01:00,59.0,55.0,30.23,ENE,62,0.0,1.0,88,0.00,,,0.00,,2013-08-17 09:01:00,
2013-08-17 05:22:00,59.0,55.0,30.23,ENE,62,0.0,1.0,88,0.00,,,0.00,,2013-08-17 09:22:00,
2013-08-17 05:33:00,59.0,55.0,30.23,ENE,62,0.0,1.0,88,0.00,,,0.00,,2013-08-17 09:33:00,
2013-08-17 05:43:00,59.0,55.0,30.23,ENE,62,0.0,1.0,88,0.00,,,0.00,,2013-08-17 09:43:00,
2013-08-17 05:53:00,59.0,55.0,30.23,ENE,62,0.0,1.0,88,0.00,,,0.00,,2013-08-17 09:53:00,
2013-08-17 06:01:00,60.0,57.0,30.23,ENE,62,0.0,0.0,89,0.00,,,0.00,,2013-08-17 10:01:00,
2013-08-17 06:23:00,60.0,57.0,30.23,ENE,62,0.0,0.0,89,0.00,,,0.00,,2013-08-17 10:23:00,
2013-08-17 06:32:00,60.0,57.0,30.23,ENE,62,0.0,0.0,89,0.00,,,0.00,,2013-08-17 10:32:00,
2013-08-17 06:53:00,60.0,57.0,30.23,ENE,62,0.0,0.0,89,0.00,,,0.00,,2013-08-17 10:53:00,
2013-08-17 07:01:00,61.0,58.0,30.26,SE,133,0.0,0.0,90,0.00,,,0.00,,2013-08-17 11:01:00,
2013-08-17 07:52:00,61.0,58.0,30.26,SE,133,0.0,0.0,90,0.00,,,0.00,,2013-08-17 11:52:00,
2013-08-17 09:52:00,68.0,62.0,30.27,SE,132,0.0,1.0,81,0.00,,,0.00,,2013-08-17 13:52:00,
2013-08-17 10:01:00,68.0,62.0,30.27,SE,132,0.0,1.0,81,0.00,,,0.00,,2013-08-17 14:01:00,
2013-08-17 10:22:00,71.0,62.0,30.27,NE,53,0.0,1.0,74,0.00,,,0.00,,2013-08-17 14:22:00,
2013-08-17 10:32:00,71.0,62.0,30.27,NE,53,0.0,1.0,74,0.00,,,0.00,,2013-08-17 14:32:00,
2013-08-17 10:42:00,71.0,62.0,30.27,NE,53,0.0,1.0,74,0.00,,,0.00,,2013-08-17 14:42:00,
2013-08-17 10:52:00,71.0,62.0,30.27,NE,53,0.0,1.0,74,0.00,,,0.00,,2013-08-17 14:52:00,
2013-08-17 11:01:00,71.0,62.0,30.27,NE,53,0.0,1.0,74,0.00,,,0.00,,2013-08-17 15:01:00,
2013-08-17 11:03:00,74.0,62.0,30.28,ENE,59,0.0,3.0,66,0.00,,,0.00,,2013-08-17 15:03:00,
2013-08-17 11:22:00,74.0,62.0,30.28,ENE,59,0.0,3.0,66,0.00,,,0.00,,2013-08-17 15:22:00,
2013-08-17 11:33:00,74.0,62.0,30.28,ENE,59,0.0,3.0,66,0.00,,,0.00,,2013-08-17 15:33:00,
2013-08-17 11:44:00,74.0,62.0,30.28,ENE,59,0.0,3.0,66,0.00,,,0.00,,2013-08-17 15:44:00,
2013-08-17 11:54:00,74.0,62.0,30.28,ENE,59,0.0,3.0,66,0.00,,,0.00,,2013-08-17 15:54:00,
2013-08-17 12:23:00,75.0,60.0,30.27,NE,38,0.0,6.0,60,0.00,,,0.00,,2013-08-17 16:23:00,
2013-08-17 12:33:00,75.0,60.0,30.27,NE,38,0.0,6.0,60,0.00,,,0.00,,2013-08-17 16:33:00,
2013-08-17 12:53:00,75.0,60.0,30.27,NE,38,0.0,6.0,60,0.00,,,0.00,,2013-08-17 16:53:00,
2013-08-17 13:02:00,75.0,60.0,30.27,NE,38,0.0,6.0,60,0.00,,,0.00,,2013-08-17 17:02:00,
2013-08-17 13:23:00,77.0,60.0,30.27,NNE,29,0.0,2.0,55,0.00,,,0.00,,2013-08-17 17:23:00,
2013-08-17 13:33:00,77.0,60.0,30.27,NNE,29,0.0,2.0,55,0.00,,,0.00,,2013-08-17 17:33:00,
2013-08-17 13:52:00,77.0,60.0,30.27,NNE,29,0.0,2.0,55,0.00,,,0.00,,2013-08-17 17:52:00,
2013-08-17 14:02:00,77.0,60.0,30.27,NNE,29,0.0,2.0,55,0.00,,,0.00,,2013-08-17 18:02:00,
2013-08-17 14:21:00,77.0,63.0,30.26,NNE,33,0.0,5.0,61,0.00,,,0.00,,2013-08-17 18:21:00,
2013-08-17 14:32:00,77.0,63.0,30.26,NNE,33,0.0,5.0,61,0.00,,,0.00,,2013-08-17 18:32:00,
2013-08-17 14:42:00,77.0,63.0,30.26,NNE,33,0.0,5.0,61,0.00,,,0.00,,2013-08-17 18:42:00,
2013-08-17 14:52:00,77.0,63.0,30.26,NNE,33,0.0,5.0,61,0.00,,,0.00,,2013-08-17 18:52:00,
2013-08-17 15:01:00,77.0,63.0,30.26,NNE,33,0.0,5.0,61,0.00,,,0.00,,2013-08-17 19:01:00,
2013-08-17 15:02:00,77.0,61.0,30.25,East,99,0.0,5.0,57,0.00,,,0.00,,2013-08-17 19:02:00,
2013-08-17 15:21:00,77.0,61.0,30.25,East,99,0.0,5.0,57,0.00,,,0.00,,2013-08-17 19:21:00,
2013-08-17 15:32:00,77.0,61.0,30.25,East,99,0.0,5.0,57,0.00,,,0.00,,2013-08-17 19:32:00,
2013-08-17 15:52:00,77.0,61.0,30.25,East,99,0.0,5.0,57,0.00,,,0.00,,2013-08-17 19:52:00,
2013-08-17 16:21:00,77.0,63.0,30.24,East,90,0.0,0.0,61,0.00,,,0.00,,2013-08-17 20:21:00,
2013-08-17 16:32:00,77.0,63.0,30.24,East,90,0.0,0.0,61,0.00,,,0.00,,2013-08-17 20:32:00,
2013-08-17 16:52:00,77.0,63.0,30.24,East,90,0.0,0.0,61,0.00,,,0.00,,2013-08-17 20:52:00,
2013-08-17 17:01:00,77.0,63.0,30.24,East,90,0.0,0.0,61,0.00,,,0.00,,2013-08-17 21:01:00,
2013-08-17 17:02:00,80.0,64.0,30.24,East,90,0.0,0.0,58,0.00,,,0.00,,2013-08-17 21:02:00,
2013-08-17 17:22:00,80.0,64.0,30.24,East,90,0.0,0.0,58,0.00,,,0.00,,2013-08-17 21:22:00,
2013-08-17 17:33:00,80.0,64.0,30.24,East,90,0.0,0.0,58,0.00,,,0.00,,2013-08-17 21:33:00,
2013-08-17 17:54:00,80.0,64.0,30.24,East,90,0.0,0.0,58,0.00,,,0.00,,2013-08-17 21:54:00,
2013-08-17 18:02:00,74.0,63.0,30.23,ENE,70,0.0,0.0,69,0.00,,,0.00,,2013-08-17 22:02:00,
2013-08-17 18:23:00,74.0,63.0,30.23,ENE,70,0.0,0.0,69,0.00,,,0.00,,2013-08-17 22:23:00,
2013-08-17 18:33:00,74.0,63.0,30.23,ENE,70,0.0,0.0,69,0.00,,,0.00,,2013-08-17 22:33:00,
2013-08-17 18:52:00,74.0,63.0,30.23,ENE,70,0.0,0.0,69,0.00,,,0.00,,2013-08-17 22:52:00,
2013-08-17 19:22:00,72.0,62.0,30.23,ENE,70,0.0,0.0,72,0.00,,,0.00,,2013-08-17 23:22:00,
2013-08-17 19:32:00,72.0,62.0,30.23,ENE,70,0.0,0.0,72,0.00,,,0.00,,2013-08-17 23:32:00,
2013-08-17 19:42:00,72.0,62.0,30.23,ENE,70,0.0,0.0,72,0.00,,,0.00,,2013-08-17 23:42:00,
2013-08-17 19:52:00,72.0,62.0,30.23,ENE,70,0.0,0.0,72,0.00,,,0.00,,2013-08-17 23:52:00,
2013-08-17 20:01:00,72.0,62.0,30.23,ENE,70,0.0,0.0,72,0.00,,,0.00,,2013-08-18 00:01:00,
2013-08-17 20:22:00,68.0,61.0,30.24,ENE,69,0.0,0.0,79,0.00,,,0.00,,2013-08-18 00:22:00,
2013-08-17 20:32:00,68.0,61.0,30.24,ENE,69,0.0,0.0,79,0.00,,,0.00,,2013-08-18 00:32:00,
2013-08-17 20:42:00,68.0,61.0,30.24,ENE,69,0.0,0.0,79,0.00,,,0.00,,2013-08-18 00:42:00,
2013-08-17 20:52:00,68.0,61.0,30.24,ENE,69,0.0,0.0,79,0.00,,,0.00,,2013-08-18 00:52:00,
2013-08-17 21:01:00,68.0,61.0,30.24,ENE,69,0.0,0.0,79,0.00,,,0.00,,2013-08-18 01:01:00,
2013-08-17 21:02:00,66.0,60.0,30.26,ENE,69,0.0,0.0,81,0.00,,,0.00,,2013-08-18 01:02:00,
2013-08-17 21:21:00,66.0,60.0,30.26,ENE,69,0.0,0.0,81,0.00,,,0.00,,2013-08-18 01:21:00,
2013-08-17 21:32:00,66.0,60.0,30.26,ENE,69,0.0,0.0,81,0.00,,,0.00,,2013-08-18 01:32:00,
2013-08-17 21:42:00,66.0,60.0,30.26,ENE,69,0.0,0.0,81,0.00,,,0.00,,2013-08-18 01:42:00,
2013-08-17 21:52:00,66.0,60.0,30.26,ENE,69,0.0,0.0,81,0.00,,,0.00,,2013-08-18 01:52:00,
2013-08-17 22:02:00,65.0,60.0,30.27,ENE,70,0.0,0.0,83,0.00,,,0.00,,2013-08-18 02:02:00,
2013-08-17 22:21:00,65.0,60.0,30.27,ENE,70,0.0,0.0,83,0.00,,,0.00,,2013-08-18 02:21:00,
2013-08-17 22:32:00,65.0,60.0,30.27,ENE,70,0.0,0.0,83,0.00,,,0.00,,2013-08-18 02:32:00,
2013-08-17 22:42:00,65.0,60.0,30.27,ENE,70,0.0,0.0,83,0.00,,,0.00,,2013-08-18 02:42:00,
2013-08-17 22:52:00,65.0,60.0,30.27,ENE,70,0.0,0.0,83,0.00,,,0.00,,2013-08-18 02:52:00,
2013-08-17 23:02:00,-999.0,-99.9,30.26,ENE,70,0.0,0.0,-999,0.00,,,0.00,,2013-08-18 03:02:00,
2013-08-17 23:22:00,64.0,60.0,30.26,ENE,70,0.0,0.0,86,0.00,,,0.00,,2013-08-18 03:22:00,
2013-08-17 23:33:00,64.0,60.0,30.26,ENE,70,0.0,0.0,86,0.00,,,0.00,,2013-08-18 03:33:00,
2013-08-17 23:53:00,64.0,60.0,30.26,ENE,70,0.0,0.0,86,0.00,,,0.00,,2013-08-18 03:53:00,